sensor_id;sensor_type;location;lat;lon;timestamp;P1;durP1;ratioP1;P2;durP2;ratioP2
60975;SDS011;46849;48.154;17.042;2022-12-18T00:02:30;15.02;;;8.43;;
60975;SDS011;46849;48.154;17.042;2022-12-18T00:05:15;16.00;;;8.77;;
60975;SDS011;46849;48.154;17.042;2022-12-18T00:08:00;14.52;;;8.50;;
60975;SDS011;46849;48.154;17.042;2022-12-18T00:10:44;17.08;;;9.32;;
60975;SDS011;46849;48.154;17.042;2022-12-18T00:13:30;15.75;;;9.02;;
60975;SDS011;46849;48.154;17.042;2022-12-18T00:16:18;15.70;;;9.23;;
60975;SDS011;46849;48.154;17.042;2022-12-18T00:19:04;16.35;;;8.73;;
60975;SDS011;46849;48.154;17.042;2022-12-18T00:21:49;16.48;;;9.73;;
60975;SDS011;46849;48.154;17.042;2022-12-18T00:24:33;17.45;;;9.98;;
60975;SDS011;46849;48.154;17.042;2022-12-18T00:27:18;18.65;;;10.52;;
60975;SDS011;46849;48.154;17.042;2022-12-18T00:30:03;16.85;;;9.48;;
60975;SDS011;46849;48.154;17.042;2022-12-18T00:32:48;18.13;;;10.93;;
60975;SDS011;46849;48.154;17.042;2022-12-18T00:35:33;17.48;;;9.55;;
60975;SDS011;46849;48.154;17.042;2022-12-18T00:38:17;13.10;;;6.78;;
60975;SDS011;46849;48.154;17.042;2022-12-18T00:41:03;20.90;;;9.40;;
60975;SDS011;46849;48.154;17.042;2022-12-18T00:43:52;15.48;;;7.55;;
60975;SDS011;46849;48.154;17.042;2022-12-18T00:46:37;14.25;;;6.88;;
60975;SDS011;46849;48.154;17.042;2022-12-18T00:49:22;21.52;;;11.27;;
60975;SDS011;46849;48.154;17.042;2022-12-18T00:52:07;16.30;;;7.90;;
60975;SDS011;46849;48.154;17.042;2022-12-18T00:54:52;13.60;;;7.45;;
60975;SDS011;46849;48.154;17.042;2022-12-18T00:57:37;18.13;;;7.70;;
60975;SDS011;46849;48.154;17.042;2022-12-18T01:00:21;14.02;;;7.18;;
60975;SDS011;46849;48.154;17.042;2022-12-18T01:03:06;16.70;;;8.43;;
60975;SDS011;46849;48.154;17.042;2022-12-18T01:05:51;18.35;;;8.05;;
60975;SDS011;46849;48.154;17.042;2022-12-18T01:08:37;14.30;;;7.95;;
60975;SDS011;46849;48.154;17.042;2022-12-18T01:11:23;18.17;;;10.95;;
60975;SDS011;46849;48.154;17.042;2022-12-18T01:14:09;19.40;;;11.75;;
60975;SDS011;46849;48.154;17.042;2022-12-18T01:16:55;19.65;;;11.63;;
60975;SDS011;46849;48.154;17.042;2022-12-18T01:19:40;20.90;;;11.90;;
60975;SDS011;46849;48.154;17.042;2022-12-18T01:22:27;17.45;;;10.02;;
60975;SDS011;46849;48.154;17.042;2022-12-18T01:25:12;18.17;;;10.15;;
60975;SDS011;46849;48.154;17.042;2022-12-18T01:27:56;18.40;;;10.57;;
60975;SDS011;46849;48.154;17.042;2022-12-18T01:30:43;18.23;;;10.77;;
60975;SDS011;46849;48.154;17.042;2022-12-18T01:33:28;17.95;;;10.45;;
60975;SDS011;46849;48.154;17.042;2022-12-18T01:36:21;17.88;;;11.27;;
60975;SDS011;46849;48.154;17.042;2022-12-18T01:39:09;19.95;;;10.82;;
60975;SDS011;46849;48.154;17.042;2022-12-18T01:41:58;21.75;;;11.52;;
60975;SDS011;46849;48.154;17.042;2022-12-18T01:47:47;18.55;;;10.85;;
60975;SDS011;46849;48.154;17.042;2022-12-18T01:50:40;18.60;;;11.43;;
60975;SDS011;46849;48.154;17.042;2022-12-18T01:53:28;20.17;;;10.48;;
60975;SDS011;46849;48.154;17.042;2022-12-18T01:56:13;18.83;;;10.85;;
60975;SDS011;46849;48.154;17.042;2022-12-18T01:59:02;17.58;;;10.80;;
60975;SDS011;46849;48.154;17.042;2022-12-18T02:01:48;20.40;;;11.32;;
60975;SDS011;46849;48.154;17.042;2022-12-18T02:04:34;19.48;;;10.65;;
60975;SDS011;46849;48.154;17.042;2022-12-18T02:07:31;18.33;;;11.40;;
60975;SDS011;46849;48.154;17.042;2022-12-18T02:13:32;19.60;;;11.57;;
60975;SDS011;46849;48.154;17.042;2022-12-18T02:25:28;18.63;;;11.10;;
60975;SDS011;46849;48.154;17.042;2022-12-18T02:28:38;18.83;;;11.73;;
60975;SDS011;46849;48.154;17.042;2022-12-18T02:31:30;18.92;;;10.70;;
60975;SDS011;46849;48.154;17.042;2022-12-18T02:34:21;19.20;;;12.30;;
60975;SDS011;46849;48.154;17.042;2022-12-18T02:37:09;20.30;;;11.27;;
60975;SDS011;46849;48.154;17.042;2022-12-18T02:39:59;20.80;;;11.85;;
60975;SDS011;46849;48.154;17.042;2022-12-18T02:42:44;21.58;;;12.75;;
60975;SDS011;46849;48.154;17.042;2022-12-18T02:45:32;19.88;;;11.23;;
60975;SDS011;46849;48.154;17.042;2022-12-18T02:48:17;23.25;;;13.80;;
60975;SDS011;46849;48.154;17.042;2022-12-18T02:51:14;21.27;;;12.18;;
60975;SDS011;46849;48.154;17.042;2022-12-18T02:54:10;23.23;;;13.00;;
60975;SDS011;46849;48.154;17.042;2022-12-18T02:57:20;21.35;;;12.23;;
60975;SDS011;46849;48.154;17.042;2022-12-18T03:00:16;25.83;;;14.13;;
60975;SDS011;46849;48.154;17.042;2022-12-18T03:03:07;24.15;;;14.75;;
60975;SDS011;46849;48.154;17.042;2022-12-18T03:06:00;21.95;;;12.15;;
60975;SDS011;46849;48.154;17.042;2022-12-18T03:08:52;22.02;;;12.25;;
60975;SDS011;46849;48.154;17.042;2022-12-18T03:11:45;23.95;;;14.48;;
60975;SDS011;46849;48.154;17.042;2022-12-18T03:18:06;24.13;;;14.57;;
60975;SDS011;46849;48.154;17.042;2022-12-18T03:20:56;26.17;;;14.00;;
60975;SDS011;46849;48.154;17.042;2022-12-18T03:23:48;22.92;;;13.85;;
60975;SDS011;46849;48.154;17.042;2022-12-18T03:26:37;25.60;;;13.73;;
60975;SDS011;46849;48.154;17.042;2022-12-18T03:32:32;22.67;;;13.00;;
60975;SDS011;46849;48.154;17.042;2022-12-18T03:35:26;27.33;;;14.90;;
60975;SDS011;46849;48.154;17.042;2022-12-18T03:38:14;28.27;;;15.15;;
60975;SDS011;46849;48.154;17.042;2022-12-18T03:41:06;24.88;;;14.50;;
60975;SDS011;46849;48.154;17.042;2022-12-18T03:44:15;21.08;;;13.20;;
60975;SDS011;46849;48.154;17.042;2022-12-18T03:47:33;27.58;;;14.55;;
60975;SDS011;46849;48.154;17.042;2022-12-18T03:50:25;23.75;;;14.65;;
60975;SDS011;46849;48.154;17.042;2022-12-18T03:53:26;23.45;;;12.85;;
60975;SDS011;46849;48.154;17.042;2022-12-18T03:56:12;25.30;;;13.90;;
60975;SDS011;46849;48.154;17.042;2022-12-18T03:59:01;28.35;;;15.30;;
60975;SDS011;46849;48.154;17.042;2022-12-18T04:01:50;25.13;;;14.10;;
60975;SDS011;46849;48.154;17.042;2022-12-18T04:04:38;24.98;;;13.32;;
60975;SDS011;46849;48.154;17.042;2022-12-18T04:07:25;25.98;;;14.57;;
60975;SDS011;46849;48.154;17.042;2022-12-18T04:10:11;24.42;;;13.52;;
60975;SDS011;46849;48.154;17.042;2022-12-18T04:12:57;23.25;;;13.57;;
60975;SDS011;46849;48.154;17.042;2022-12-18T04:15:42;23.23;;;13.63;;
60975;SDS011;46849;48.154;17.042;2022-12-18T04:18:33;25.45;;;14.00;;
60975;SDS011;46849;48.154;17.042;2022-12-18T04:21:19;27.45;;;14.52;;
60975;SDS011;46849;48.154;17.042;2022-12-18T04:24:06;24.90;;;14.48;;
60975;SDS011;46849;48.154;17.042;2022-12-18T04:26:53;23.08;;;14.13;;
60975;SDS011;46849;48.154;17.042;2022-12-18T04:29:44;26.73;;;14.35;;
60975;SDS011;46849;48.154;17.042;2022-12-18T04:32:29;26.85;;;14.35;;
60975;SDS011;46849;48.154;17.042;2022-12-18T04:35:14;28.17;;;16.13;;
60975;SDS011;46849;48.154;17.042;2022-12-18T04:38:02;30.58;;;16.90;;
60975;SDS011;46849;48.154;17.042;2022-12-18T04:40:47;26.42;;;15.55;;
60975;SDS011;46849;48.154;17.042;2022-12-18T04:43:39;28.48;;;15.68;;
60975;SDS011;46849;48.154;17.042;2022-12-18T04:46:25;27.85;;;15.85;;
60975;SDS011;46849;48.154;17.042;2022-12-18T04:49:09;24.10;;;14.88;;
60975;SDS011;46849;48.154;17.042;2022-12-18T04:51:58;22.58;;;13.93;;
60975;SDS011;46849;48.154;17.042;2022-12-18T04:54:43;25.13;;;14.98;;
60975;SDS011;46849;48.154;17.042;2022-12-18T04:57:27;28.75;;;15.55;;
60975;SDS011;46849;48.154;17.042;2022-12-18T05:00:12;28.27;;;15.77;;
60975;SDS011;46849;48.154;17.042;2022-12-18T05:02:57;25.73;;;14.77;;
60975;SDS011;46849;48.154;17.042;2022-12-18T05:05:42;27.35;;;15.18;;
60975;SDS011;46849;48.154;17.042;2022-12-18T05:08:26;27.98;;;14.68;;
60975;SDS011;46849;48.154;17.042;2022-12-18T05:11:12;27.88;;;15.15;;
60975;SDS011;46849;48.154;17.042;2022-12-18T05:13:59;27.45;;;15.75;;
60975;SDS011;46849;48.154;17.042;2022-12-18T05:16:44;29.35;;;15.65;;
60975;SDS011;46849;48.154;17.042;2022-12-18T05:19:29;22.98;;;13.93;;
60975;SDS011;46849;48.154;17.042;2022-12-18T05:22:14;23.90;;;14.48;;
60975;SDS011;46849;48.154;17.042;2022-12-18T05:24:59;28.60;;;15.32;;
60975;SDS011;46849;48.154;17.042;2022-12-18T05:27:43;28.27;;;14.98;;
60975;SDS011;46849;48.154;17.042;2022-12-18T05:30:29;25.88;;;14.60;;
60975;SDS011;46849;48.154;17.042;2022-12-18T05:33:14;26.60;;;14.88;;
60975;SDS011;46849;48.154;17.042;2022-12-18T05:35:59;26.58;;;14.90;;
60975;SDS011;46849;48.154;17.042;2022-12-18T05:38:45;29.90;;;15.05;;
60975;SDS011;46849;48.154;17.042;2022-12-18T05:41:30;26.92;;;14.95;;
60975;SDS011;46849;48.154;17.042;2022-12-18T05:44:14;26.67;;;15.60;;
60975;SDS011;46849;48.154;17.042;2022-12-18T05:46:59;27.83;;;14.70;;
60975;SDS011;46849;48.154;17.042;2022-12-18T05:49:43;29.17;;;16.67;;
60975;SDS011;46849;48.154;17.042;2022-12-18T05:52:28;29.48;;;15.80;;
60975;SDS011;46849;48.154;17.042;2022-12-18T05:55:12;30.33;;;15.63;;
60975;SDS011;46849;48.154;17.042;2022-12-18T05:57:57;30.63;;;16.52;;
60975;SDS011;46849;48.154;17.042;2022-12-18T06:00:43;25.08;;;14.35;;
60975;SDS011;46849;48.154;17.042;2022-12-18T06:03:29;28.67;;;16.05;;
60975;SDS011;46849;48.154;17.042;2022-12-18T06:06:15;30.98;;;16.35;;
60975;SDS011;46849;48.154;17.042;2022-12-18T06:09:05;27.55;;;15.05;;
60975;SDS011;46849;48.154;17.042;2022-12-18T06:11:53;29.45;;;16.13;;
60975;SDS011;46849;48.154;17.042;2022-12-18T06:14:37;30.10;;;15.82;;
60975;SDS011;46849;48.154;17.042;2022-12-18T06:17:23;28.65;;;15.20;;
60975;SDS011;46849;48.154;17.042;2022-12-18T06:20:07;29.38;;;15.65;;
60975;SDS011;46849;48.154;17.042;2022-12-18T06:22:52;29.58;;;15.38;;
60975;SDS011;46849;48.154;17.042;2022-12-18T06:25:38;32.55;;;16.45;;
60975;SDS011;46849;48.154;17.042;2022-12-18T06:28:23;22.75;;;11.77;;
60975;SDS011;46849;48.154;17.042;2022-12-18T06:31:08;27.77;;;14.50;;
60975;SDS011;46849;48.154;17.042;2022-12-18T06:33:52;27.73;;;14.75;;
60975;SDS011;46849;48.154;17.042;2022-12-18T06:36:38;20.90;;;11.30;;
60975;SDS011;46849;48.154;17.042;2022-12-18T06:39:22;24.33;;;13.60;;
60975;SDS011;46849;48.154;17.042;2022-12-18T06:42:07;19.38;;;11.02;;
60975;SDS011;46849;48.154;17.042;2022-12-18T06:44:52;26.33;;;14.88;;
60975;SDS011;46849;48.154;17.042;2022-12-18T06:47:37;25.92;;;13.65;;
60975;SDS011;46849;48.154;17.042;2022-12-18T06:50:21;25.38;;;13.02;;
60975;SDS011;46849;48.154;17.042;2022-12-18T06:53:06;26.83;;;14.18;;
60975;SDS011;46849;48.154;17.042;2022-12-18T06:55:52;26.30;;;14.25;;
60975;SDS011;46849;48.154;17.042;2022-12-18T06:58:37;27.27;;;15.45;;
60975;SDS011;46849;48.154;17.042;2022-12-18T07:01:22;25.02;;;13.27;;
60975;SDS011;46849;48.154;17.042;2022-12-18T07:04:07;28.58;;;14.68;;
60975;SDS011;46849;48.154;17.042;2022-12-18T07:06:52;29.80;;;15.35;;
60975;SDS011;46849;48.154;17.042;2022-12-18T07:09:36;28.05;;;14.73;;
60975;SDS011;46849;48.154;17.042;2022-12-18T07:12:21;26.02;;;13.10;;
60975;SDS011;46849;48.154;17.042;2022-12-18T07:15:06;29.23;;;14.43;;
60975;SDS011;46849;48.154;17.042;2022-12-18T07:17:51;26.17;;;13.50;;
60975;SDS011;46849;48.154;17.042;2022-12-18T07:20:35;28.95;;;14.20;;
60975;SDS011;46849;48.154;17.042;2022-12-18T07:23:20;30.88;;;15.77;;
60975;SDS011;46849;48.154;17.042;2022-12-18T07:26:07;27.02;;;15.07;;
60975;SDS011;46849;48.154;17.042;2022-12-18T07:28:54;32.10;;;16.33;;
60975;SDS011;46849;48.154;17.042;2022-12-18T07:31:41;28.95;;;15.15;;
60975;SDS011;46849;48.154;17.042;2022-12-18T07:34:26;33.03;;;17.40;;
60975;SDS011;46849;48.154;17.042;2022-12-18T07:37:11;25.85;;;15.40;;
60975;SDS011;46849;48.154;17.042;2022-12-18T07:39:55;29.23;;;16.33;;
60975;SDS011;46849;48.154;17.042;2022-12-18T07:42:40;24.98;;;14.00;;
60975;SDS011;46849;48.154;17.042;2022-12-18T07:45:25;23.92;;;13.20;;
60975;SDS011;46849;48.154;17.042;2022-12-18T07:48:10;33.58;;;17.15;;
60975;SDS011;46849;48.154;17.042;2022-12-18T07:51:01;26.27;;;14.75;;
60975;SDS011;46849;48.154;17.042;2022-12-18T07:53:48;27.67;;;15.23;;
60975;SDS011;46849;48.154;17.042;2022-12-18T07:56:33;30.55;;;14.80;;
60975;SDS011;46849;48.154;17.042;2022-12-18T07:59:17;27.30;;;14.75;;
60975;SDS011;46849;48.154;17.042;2022-12-18T08:02:02;30.58;;;16.45;;
60975;SDS011;46849;48.154;17.042;2022-12-18T08:04:47;29.25;;;14.77;;
60975;SDS011;46849;48.154;17.042;2022-12-18T08:07:32;27.45;;;14.27;;
60975;SDS011;46849;48.154;17.042;2022-12-18T08:10:16;28.75;;;14.52;;
60975;SDS011;46849;48.154;17.042;2022-12-18T08:13:01;26.92;;;15.07;;
60975;SDS011;46849;48.154;17.042;2022-12-18T08:15:46;30.92;;;15.93;;
60975;SDS011;46849;48.154;17.042;2022-12-18T08:18:31;33.03;;;15.90;;
60975;SDS011;46849;48.154;17.042;2022-12-18T08:21:18;27.70;;;15.27;;
60975;SDS011;46849;48.154;17.042;2022-12-18T08:24:06;26.27;;;13.98;;
60975;SDS011;46849;48.154;17.042;2022-12-18T08:26:51;26.33;;;15.00;;
60975;SDS011;46849;48.154;17.042;2022-12-18T08:29:35;29.98;;;14.25;;
60975;SDS011;46849;48.154;17.042;2022-12-18T08:32:20;25.35;;;14.00;;
60975;SDS011;46849;48.154;17.042;2022-12-18T08:35:05;28.50;;;15.50;;
60975;SDS011;46849;48.154;17.042;2022-12-18T08:37:50;26.27;;;14.10;;
60975;SDS011;46849;48.154;17.042;2022-12-18T08:40:34;28.95;;;14.80;;
60975;SDS011;46849;48.154;17.042;2022-12-18T08:43:19;24.95;;;14.80;;
60975;SDS011;46849;48.154;17.042;2022-12-18T08:46:23;26.15;;;14.93;;
60975;SDS011;46849;48.154;17.042;2022-12-18T08:49:10;26.42;;;14.15;;
60975;SDS011;46849;48.154;17.042;2022-12-18T08:51:55;24.70;;;13.77;;
60975;SDS011;46849;48.154;17.042;2022-12-18T08:54:44;33.47;;;15.32;;
60975;SDS011;46849;48.154;17.042;2022-12-18T08:57:28;24.55;;;13.45;;
60975;SDS011;46849;48.154;17.042;2022-12-18T09:00:13;24.65;;;13.05;;
60975;SDS011;46849;48.154;17.042;2022-12-18T09:02:57;22.77;;;12.60;;
60975;SDS011;46849;48.154;17.042;2022-12-18T09:05:43;28.42;;;14.93;;
60975;SDS011;46849;48.154;17.042;2022-12-18T09:08:29;23.50;;;13.48;;
60975;SDS011;46849;48.154;17.042;2022-12-18T09:11:15;27.25;;;14.35;;
60975;SDS011;46849;48.154;17.042;2022-12-18T09:14:04;27.27;;;13.73;;
60975;SDS011;46849;48.154;17.042;2022-12-18T09:16:48;25.23;;;13.65;;
60975;SDS011;46849;48.154;17.042;2022-12-18T09:19:34;27.35;;;14.23;;
60975;SDS011;46849;48.154;17.042;2022-12-18T09:22:19;27.67;;;15.15;;
60975;SDS011;46849;48.154;17.042;2022-12-18T09:25:04;25.08;;;14.27;;
60975;SDS011;46849;48.154;17.042;2022-12-18T09:27:51;26.67;;;14.70;;
60975;SDS011;46849;48.154;17.042;2022-12-18T09:30:40;22.15;;;13.00;;
60975;SDS011;46849;48.154;17.042;2022-12-18T09:33:27;25.57;;;15.23;;
60975;SDS011;46849;48.154;17.042;2022-12-18T09:36:12;28.08;;;14.32;;
60975;SDS011;46849;48.154;17.042;2022-12-18T09:38:58;26.75;;;13.85;;
60975;SDS011;46849;48.154;17.042;2022-12-18T09:41:57;27.42;;;15.32;;
60975;SDS011;46849;48.154;17.042;2022-12-18T09:44:46;28.27;;;14.75;;
60975;SDS011;46849;48.154;17.042;2022-12-18T09:47:35;29.70;;;16.08;;
60975;SDS011;46849;48.154;17.042;2022-12-18T09:50:32;30.83;;;16.38;;
60975;SDS011;46849;48.154;17.042;2022-12-18T09:53:20;27.35;;;14.40;;
60975;SDS011;46849;48.154;17.042;2022-12-18T09:56:10;27.58;;;14.30;;
60975;SDS011;46849;48.154;17.042;2022-12-18T09:59:01;30.55;;;15.82;;
60975;SDS011;46849;48.154;17.042;2022-12-18T10:01:48;26.27;;;15.10;;
60975;SDS011;46849;48.154;17.042;2022-12-18T10:04:32;31.42;;;15.88;;
60975;SDS011;46849;48.154;17.042;2022-12-18T10:07:19;25.75;;;14.88;;
60975;SDS011;46849;48.154;17.042;2022-12-18T10:13:36;26.95;;;15.15;;
60975;SDS011;46849;48.154;17.042;2022-12-18T10:20:02;28.27;;;15.70;;
60975;SDS011;46849;48.154;17.042;2022-12-18T10:22:57;25.67;;;14.48;;
60975;SDS011;46849;48.154;17.042;2022-12-18T10:28:45;27.58;;;15.98;;
60975;SDS011;46849;48.154;17.042;2022-12-18T10:31:30;28.58;;;15.77;;
60975;SDS011;46849;48.154;17.042;2022-12-18T10:34:15;31.48;;;16.55;;
60975;SDS011;46849;48.154;17.042;2022-12-18T10:37:00;31.67;;;16.60;;
60975;SDS011;46849;48.154;17.042;2022-12-18T10:43:12;30.52;;;17.33;;
60975;SDS011;46849;48.154;17.042;2022-12-18T10:48:53;29.77;;;15.75;;
60975;SDS011;46849;48.154;17.042;2022-12-18T10:51:40;32.42;;;17.38;;
60975;SDS011;46849;48.154;17.042;2022-12-18T10:54:25;32.42;;;16.65;;
60975;SDS011;46849;48.154;17.042;2022-12-18T10:57:16;31.65;;;18.40;;
60975;SDS011;46849;48.154;17.042;2022-12-18T11:00:24;30.13;;;17.35;;
60975;SDS011;46849;48.154;17.042;2022-12-18T11:03:28;34.72;;;18.92;;
60975;SDS011;46849;48.154;17.042;2022-12-18T11:06:24;31.67;;;17.42;;
60975;SDS011;46849;48.154;17.042;2022-12-18T11:09:19;31.73;;;17.67;;
60975;SDS011;46849;48.154;17.042;2022-12-18T11:12:15;26.67;;;16.33;;
60975;SDS011;46849;48.154;17.042;2022-12-18T11:15:01;31.13;;;16.40;;
60975;SDS011;46849;48.154;17.042;2022-12-18T11:17:47;29.65;;;15.18;;
60975;SDS011;46849;48.154;17.042;2022-12-18T11:20:34;25.15;;;12.82;;
60975;SDS011;46849;48.154;17.042;2022-12-18T11:23:21;27.95;;;15.90;;
60975;SDS011;46849;48.154;17.042;2022-12-18T11:26:10;29.67;;;16.52;;
60975;SDS011;46849;48.154;17.042;2022-12-18T11:29:14;33.78;;;18.60;;
60975;SDS011;46849;48.154;17.042;2022-12-18T11:35:03;24.73;;;14.02;;
60975;SDS011;46849;48.154;17.042;2022-12-18T11:37:58;39.60;;;15.23;;
60975;SDS011;46849;48.154;17.042;2022-12-18T11:40:48;27.65;;;13.95;;
60975;SDS011;46849;48.154;17.042;2022-12-18T11:43:55;25.92;;;13.27;;
60975;SDS011;46849;48.154;17.042;2022-12-18T11:46:47;27.27;;;15.02;;
60975;SDS011;46849;48.154;17.042;2022-12-18T11:49:36;28.13;;;15.75;;
60975;SDS011;46849;48.154;17.042;2022-12-18T11:52:38;25.73;;;14.40;;
60975;SDS011;46849;48.154;17.042;2022-12-18T12:02:22;25.60;;;14.95;;
60975;SDS011;46849;48.154;17.042;2022-12-18T12:17:47;26.63;;;14.07;;
60975;SDS011;46849;48.154;17.042;2022-12-18T12:26:38;38.35;;;16.50;;
60975;SDS011;46849;48.154;17.042;2022-12-18T12:29:55;35.35;;;15.25;;
60975;SDS011;46849;48.154;17.042;2022-12-18T12:36:11;28.98;;;14.43;;
60975;SDS011;46849;48.154;17.042;2022-12-18T12:39:06;29.58;;;15.02;;
60975;SDS011;46849;48.154;17.042;2022-12-18T12:41:55;29.58;;;13.38;;
60975;SDS011;46849;48.154;17.042;2022-12-18T12:45:00;25.17;;;14.43;;
60975;SDS011;46849;48.154;17.042;2022-12-18T12:47:49;25.83;;;14.57;;
60975;SDS011;46849;48.154;17.042;2022-12-18T12:50:36;33.45;;;14.98;;
60975;SDS011;46849;48.154;17.042;2022-12-18T12:53:26;49.85;;;21.30;;
60975;SDS011;46849;48.154;17.042;2022-12-18T12:56:17;42.38;;;19.50;;
60975;SDS011;46849;48.154;17.042;2022-12-18T12:59:26;27.35;;;13.88;;
60975;SDS011;46849;48.154;17.042;2022-12-18T13:08:12;25.83;;;13.77;;
60975;SDS011;46849;48.154;17.042;2022-12-18T13:11:28;26.25;;;13.35;;
60975;SDS011;46849;48.154;17.042;2022-12-18T13:14:40;26.58;;;12.60;;
60975;SDS011;46849;48.154;17.042;2022-12-18T13:17:29;28.35;;;12.88;;
60975;SDS011;46849;48.154;17.042;2022-12-18T13:20:15;23.35;;;13.18;;
60975;SDS011;46849;48.154;17.042;2022-12-18T13:23:01;24.05;;;12.70;;
60975;SDS011;46849;48.154;17.042;2022-12-18T13:32:40;24.20;;;13.00;;
60975;SDS011;46849;48.154;17.042;2022-12-18T13:44:10;25.17;;;12.02;;
60975;SDS011;46849;48.154;17.042;2022-12-18T13:50:27;24.27;;;12.13;;
60975;SDS011;46849;48.154;17.042;2022-12-18T13:53:33;22.45;;;10.68;;
60975;SDS011;46849;48.154;17.042;2022-12-18T13:56:23;24.00;;;12.60;;
60975;SDS011;46849;48.154;17.042;2022-12-18T13:59:11;26.80;;;12.15;;
60975;SDS011;46849;48.154;17.042;2022-12-18T14:02:13;21.20;;;11.88;;
60975;SDS011;46849;48.154;17.042;2022-12-18T14:05:00;25.70;;;12.20;;
60975;SDS011;46849;48.154;17.042;2022-12-18T14:07:44;22.30;;;13.02;;
60975;SDS011;46849;48.154;17.042;2022-12-18T14:10:29;22.23;;;11.90;;
60975;SDS011;46849;48.154;17.042;2022-12-18T14:13:32;24.73;;;13.00;;
60975;SDS011;46849;48.154;17.042;2022-12-18T14:16:25;22.55;;;12.30;;
60975;SDS011;46849;48.154;17.042;2022-12-18T14:19:16;29.00;;;12.43;;
60975;SDS011;46849;48.154;17.042;2022-12-18T14:22:02;21.98;;;11.48;;
60975;SDS011;46849;48.154;17.042;2022-12-18T14:24:47;23.02;;;12.50;;
60975;SDS011;46849;48.154;17.042;2022-12-18T14:30:52;22.98;;;12.07;;
60975;SDS011;46849;48.154;17.042;2022-12-18T14:33:37;22.08;;;11.13;;
60975;SDS011;46849;48.154;17.042;2022-12-18T14:36:26;24.75;;;12.07;;
60975;SDS011;46849;48.154;17.042;2022-12-18T14:39:16;21.85;;;10.98;;
60975;SDS011;46849;48.154;17.042;2022-12-18T14:42:01;22.02;;;12.05;;
60975;SDS011;46849;48.154;17.042;2022-12-18T14:44:46;21.92;;;11.98;;
60975;SDS011;46849;48.154;17.042;2022-12-18T14:47:31;26.98;;;13.55;;
60975;SDS011;46849;48.154;17.042;2022-12-18T14:50:16;22.48;;;12.02;;
60975;SDS011;46849;48.154;17.042;2022-12-18T14:53:00;25.40;;;13.07;;
60975;SDS011;46849;48.154;17.042;2022-12-18T14:55:46;23.00;;;13.02;;
60975;SDS011;46849;48.154;17.042;2022-12-18T14:58:31;22.50;;;11.80;;
60975;SDS011;46849;48.154;17.042;2022-12-18T15:07:21;28.33;;;14.93;;
60975;SDS011;46849;48.154;17.042;2022-12-18T15:18:32;25.38;;;13.25;;
60975;SDS011;46849;48.154;17.042;2022-12-18T15:21:19;22.52;;;12.02;;
60975;SDS011;46849;48.154;17.042;2022-12-18T15:24:13;21.98;;;12.50;;
60975;SDS011;46849;48.154;17.042;2022-12-18T15:27:02;21.55;;;12.02;;
60975;SDS011;46849;48.154;17.042;2022-12-18T15:33:17;22.63;;;11.85;;
60975;SDS011;46849;48.154;17.042;2022-12-18T15:36:13;27.23;;;14.23;;
60975;SDS011;46849;48.154;17.042;2022-12-18T15:38:59;27.75;;;14.20;;
60975;SDS011;46849;48.154;17.042;2022-12-18T15:41:44;25.52;;;14.77;;
60975;SDS011;46849;48.154;17.042;2022-12-18T15:44:49;23.88;;;12.90;;
60975;SDS011;46849;48.154;17.042;2022-12-18T15:47:33;25.77;;;13.70;;
60975;SDS011;46849;48.154;17.042;2022-12-18T15:50:18;25.55;;;14.35;;
60975;SDS011;46849;48.154;17.042;2022-12-18T15:53:03;28.02;;;15.65;;
60975;SDS011;46849;48.154;17.042;2022-12-18T15:55:47;24.45;;;14.20;;
60975;SDS011;46849;48.154;17.042;2022-12-18T15:58:51;23.80;;;12.63;;
60975;SDS011;46849;48.154;17.042;2022-12-18T16:01:37;31.00;;;16.98;;
60975;SDS011;46849;48.154;17.042;2022-12-18T16:04:22;26.17;;;14.18;;
60975;SDS011;46849;48.154;17.042;2022-12-18T16:07:07;35.42;;;18.98;;
60975;SDS011;46849;48.154;17.042;2022-12-18T16:09:54;39.13;;;21.30;;
60975;SDS011;46849;48.154;17.042;2022-12-18T16:12:40;40.42;;;20.13;;
60975;SDS011;46849;48.154;17.042;2022-12-18T16:15:26;36.58;;;20.42;;
60975;SDS011;46849;48.154;17.042;2022-12-18T16:18:10;33.60;;;19.55;;
60975;SDS011;46849;48.154;17.042;2022-12-18T16:20:55;36.35;;;19.55;;
60975;SDS011;46849;48.154;17.042;2022-12-18T16:23:40;34.28;;;18.92;;
60975;SDS011;46849;48.154;17.042;2022-12-18T16:26:24;33.38;;;17.67;;
60975;SDS011;46849;48.154;17.042;2022-12-18T16:29:09;33.50;;;17.98;;
60975;SDS011;46849;48.154;17.042;2022-12-18T16:31:55;30.00;;;16.98;;
60975;SDS011;46849;48.154;17.042;2022-12-18T16:34:43;35.35;;;19.60;;
60975;SDS011;46849;48.154;17.042;2022-12-18T16:37:29;33.22;;;19.30;;
60975;SDS011;46849;48.154;17.042;2022-12-18T16:40:14;36.38;;;19.23;;
60975;SDS011;46849;48.154;17.042;2022-12-18T16:43:00;26.00;;;14.43;;
60975;SDS011;46849;48.154;17.042;2022-12-18T16:45:45;31.15;;;16.98;;
60975;SDS011;46849;48.154;17.042;2022-12-18T16:48:30;32.92;;;18.40;;
60975;SDS011;46849;48.154;17.042;2022-12-18T16:51:14;33.53;;;18.75;;
60975;SDS011;46849;48.154;17.042;2022-12-18T16:53:59;33.47;;;17.63;;
60975;SDS011;46849;48.154;17.042;2022-12-18T16:56:44;38.42;;;21.00;;
60975;SDS011;46849;48.154;17.042;2022-12-18T16:59:28;38.20;;;18.65;;
60975;SDS011;46849;48.154;17.042;2022-12-18T17:02:17;37.08;;;18.65;;
60975;SDS011;46849;48.154;17.042;2022-12-18T17:05:04;36.42;;;19.40;;
60975;SDS011;46849;48.154;17.042;2022-12-18T17:07:49;31.10;;;18.92;;
60975;SDS011;46849;48.154;17.042;2022-12-18T17:10:34;38.65;;;19.63;;
60975;SDS011;46849;48.154;17.042;2022-12-18T17:13:19;32.85;;;18.20;;
60975;SDS011;46849;48.154;17.042;2022-12-18T17:16:04;33.17;;;17.90;;
60975;SDS011;46849;48.154;17.042;2022-12-18T17:18:49;33.58;;;18.25;;
60975;SDS011;46849;48.154;17.042;2022-12-18T17:21:36;38.35;;;19.52;;
60975;SDS011;46849;48.154;17.042;2022-12-18T17:24:20;38.55;;;19.58;;
60975;SDS011;46849;48.154;17.042;2022-12-18T17:27:05;36.75;;;20.98;;
60975;SDS011;46849;48.154;17.042;2022-12-18T17:29:52;29.77;;;17.73;;
60975;SDS011;46849;48.154;17.042;2022-12-18T17:32:38;34.05;;;18.67;;
60975;SDS011;46849;48.154;17.042;2022-12-18T17:35:22;40.50;;;21.50;;
60975;SDS011;46849;48.154;17.042;2022-12-18T17:38:07;39.25;;;20.08;;
60975;SDS011;46849;48.154;17.042;2022-12-18T17:40:52;35.40;;;19.02;;
60975;SDS011;46849;48.154;17.042;2022-12-18T17:43:36;36.38;;;18.98;;
60975;SDS011;46849;48.154;17.042;2022-12-18T17:46:29;33.15;;;17.45;;
60975;SDS011;46849;48.154;17.042;2022-12-18T17:49:16;32.72;;;17.58;;
60975;SDS011;46849;48.154;17.042;2022-12-18T17:52:01;34.42;;;19.17;;
60975;SDS011;46849;48.154;17.042;2022-12-18T17:54:46;38.50;;;20.00;;
60975;SDS011;46849;48.154;17.042;2022-12-18T17:57:30;45.95;;;22.75;;
60975;SDS011;46849;48.154;17.042;2022-12-18T18:00:16;34.92;;;18.98;;
60975;SDS011;46849;48.154;17.042;2022-12-18T18:03:00;44.00;;;22.98;;
60975;SDS011;46849;48.154;17.042;2022-12-18T18:05:48;38.47;;;19.85;;